sensor_id;sensor_type;location;lat;lon;timestamp;temperature;humidity
24250;DHT22;12379;49.820;8.648;2023-07-30T00:01:24;21.00;99.90
24250;DHT22;12379;49.820;8.648;2023-07-30T00:03:50;21.00;99.90
24250;DHT22;12379;49.820;8.648;2023-07-30T00:06:15;21.00;99.90
24250;DHT22;12379;49.820;8.648;2023-07-30T00:08:41;20.90;99.90
24250;DHT22;12379;49.820;8.648;2023-07-30T00:11:06;20.90;99.90
24250;DHT22;12379;49.820;8.648;2023-07-30T00:13:32;20.80;99.90
24250;DHT22;12379;49.820;8.648;2023-07-30T00:15:57;20.70;99.90
24250;DHT22;12379;49.820;8.648;2023-07-30T00:18:23;20.70;99.90
24250;DHT22;12379;49.820;8.648;2023-07-30T00:20:48;20.70;99.90
24250;DHT22;12379;49.820;8.648;2023-07-30T00:23:14;20.60;99.90
24250;DHT22;12379;49.820;8.648;2023-07-30T00:25:39;20.60;99.90
24250;DHT22;12379;49.820;8.648;2023-07-30T00:28:05;20.50;99.90
24250;DHT22;12379;49.820;8.648;2023-07-30T00:30:31;20.60;99.90
24250;DHT22;12379;49.820;8.648;2023-07-30T00:32:56;20.60;99.90
24250;DHT22;12379;49.820;8.648;2023-07-30T00:35:22;20.60;99.90
24250;DHT22;12379;49.820;8.648;2023-07-30T00:37:47;20.60;99.90
24250;DHT22;12379;49.820;8.648;2023-07-30T00:40:13;20.60;99.90
24250;DHT22;12379;49.820;8.648;2023-07-30T00:42:38;20.60;99.90
24250;DHT22;12379;49.820;8.648;2023-07-30T00:45:04;20.50;99.90
24250;DHT22;12379;49.820;8.648;2023-07-30T00:47:30;20.50;99.90
24250;DHT22;12379;49.820;8.648;2023-07-30T00:49:56;20.50;99.90
24250;DHT22;12379;49.820;8.648;2023-07-30T00:52:23;20.40;99.90
24250;DHT22;12379;49.820;8.648;2023-07-30T00:54:49;20.50;99.90
24250;DHT22;12379;49.820;8.648;2023-07-30T00:57:18;20.50;99.90
24250;DHT22;12379;49.820;8.648;2023-07-30T00:59:45;20.40;99.90
24250;DHT22;12379;49.820;8.648;2023-07-30T01:02:11;20.40;99.90
24250;DHT22;12379;49.820;8.648;2023-07-30T01:04:37;20.50;99.90
24250;DHT22;12379;49.820;8.648;2023-07-30T01:07:05;20.40;99.90
24250;DHT22;12379;49.820;8.648;2023-07-30T01:09:31;20.40;99.90
24250;DHT22;12379;49.820;8.648;2023-07-30T01:11:57;20.40;99.90
24250;DHT22;12379;49.820;8.648;2023-07-30T01:14:23;20.30;99.90
24250;DHT22;12379;49.820;8.648;2023-07-30T01:16:51;20.20;99.90
24250;DHT22;12379;49.820;8.648;2023-07-30T01:19:17;20.20;99.90
24250;DHT22;12379;49.820;8.648;2023-07-30T01:21:42;20.20;99.90
24250;DHT22;12379;49.820;8.648;2023-07-30T01:24:08;20.20;99.90
24250;DHT22;12379;49.820;8.648;2023-07-30T01:29:09;20.10;99.90
24250;DHT22;12379;49.820;8.648;2023-07-30T01:31:35;20.10;99.90
24250;DHT22;12379;49.820;8.648;2023-07-30T01:34:03;20.20;99.90
24250;DHT22;12379;49.820;8.648;2023-07-30T01:36:29;20.20;99.90
24250;DHT22;12379;49.820;8.648;2023-07-30T01:38:56;20.10;99.90
24250;DHT22;12379;49.820;8.648;2023-07-30T01:41:23;20.00;99.90
24250;DHT22;12379;49.820;8.648;2023-07-30T01:43:49;20.00;99.90
24250;DHT22;12379;49.820;8.648;2023-07-30T01:46:15;20.10;99.90
24250;DHT22;12379;49.820;8.648;2023-07-30T01:48:40;20.10;99.90
24250;DHT22;12379;49.820;8.648;2023-07-30T01:51:06;20.10;99.90
24250;DHT22;12379;49.820;8.648;2023-07-30T01:53:31;20.10;99.90
24250;DHT22;12379;49.820;8.648;2023-07-30T01:55:57;20.00;99.90
24250;DHT22;12379;49.820;8.648;2023-07-30T01:58:23;19.90;99.90
24250;DHT22;12379;49.820;8.648;2023-07-30T02:00:48;19.90;99.90
24250;DHT22;12379;49.820;8.648;2023-07-30T02:03:14;19.80;99.90
24250;DHT22;12379;49.820;8.648;2023-07-30T02:05:39;19.90;99.90
24250;DHT22;12379;49.820;8.648;2023-07-30T02:08:05;19.90;99.90
24250;DHT22;12379;49.820;8.648;2023-07-30T02:10:30;19.90;99.90
24250;DHT22;12379;49.820;8.648;2023-07-30T02:12:56;19.90;99.90
24250;DHT22;12379;49.820;8.648;2023-07-30T02:15:21;19.90;99.90
24250;DHT22;12379;49.820;8.648;2023-07-30T02:17:47;19.80;99.90
24250;DHT22;12379;49.820;8.648;2023-07-30T02:20:12;19.80;99.90
24250;DHT22;12379;49.820;8.648;2023-07-30T02:22:38;19.70;99.90
24250;DHT22;12379;49.820;8.648;2023-07-30T02:25:04;19.70;99.90
24250;DHT22;12379;49.820;8.648;2023-07-30T02:27:29;19.60;99.90
24250;DHT22;12379;49.820;8.648;2023-07-30T02:29:55;19.70;99.90
24250;DHT22;12379;49.820;8.648;2023-07-30T02:32:20;19.70;99.90
24250;DHT22;12379;49.820;8.648;2023-07-30T02:34:46;19.70;99.90
24250;DHT22;12379;49.820;8.648;2023-07-30T02:37:11;19.70;99.90
24250;DHT22;12379;49.820;8.648;2023-07-30T02:39:37;19.70;99.90
24250;DHT22;12379;49.820;8.648;2023-07-30T02:42:02;19.70;99.90
24250;DHT22;12379;49.820;8.648;2023-07-30T02:44:28;19.70;99.90
24250;DHT22;12379;49.820;8.648;2023-07-30T02:46:54;19.80;99.90
24250;DHT22;12379;49.820;8.648;2023-07-30T02:49:19;19.70;99.90
24250;DHT22;12379;49.820;8.648;2023-07-30T02:51:45;19.60;99.90
24250;DHT22;12379;49.820;8.648;2023-07-30T02:54:14;19.60;99.90
24250;DHT22;12379;49.820;8.648;2023-07-30T02:56:42;19.60;99.90
24250;DHT22;12379;49.820;8.648;2023-07-30T02:59:08;19.60;99.90
24250;DHT22;12379;49.820;8.648;2023-07-30T03:01:34;19.60;99.90
24250;DHT22;12379;49.820;8.648;2023-07-30T03:03:59;19.60;99.90
24250;DHT22;12379;49.820;8.648;2023-07-30T03:06:25;19.60;99.90
24250;DHT22;12379;49.820;8.648;2023-07-30T03:08:50;19.50;99.90
24250;DHT22;12379;49.820;8.648;2023-07-30T03:11:16;19.50;99.90
24250;DHT22;12379;49.820;8.648;2023-07-30T03:13:41;19.60;99.90
24250;DHT22;12379;49.820;8.648;2023-07-30T03:16:07;19.60;99.90
24250;DHT22;12379;49.820;8.648;2023-07-30T03:18:32;19.60;99.90
24250;DHT22;12379;49.820;8.648;2023-07-30T03:21:01;19.50;99.90
24250;DHT22;12379;49.820;8.648;2023-07-30T03:23:27;19.50;99.90
24250;DHT22;12379;49.820;8.648;2023-07-30T03:25:53;19.50;99.90
24250;DHT22;12379;49.820;8.648;2023-07-30T03:28:18;19.50;99.90
24250;DHT22;12379;49.820;8.648;2023-07-30T03:30:44;19.50;99.90
24250;DHT22;12379;49.820;8.648;2023-07-30T03:33:09;19.50;99.90
24250;DHT22;12379;49.820;8.648;2023-07-30T03:35:35;19.50;99.90
24250;DHT22;12379;49.820;8.648;2023-07-30T03:38:00;19.50;99.90
24250;DHT22;12379;49.820;8.648;2023-07-30T03:40:26;19.40;99.90
24250;DHT22;12379;49.820;8.648;2023-07-30T03:42:52;19.40;99.90
24250;DHT22;12379;49.820;8.648;2023-07-30T03:45:17;19.50;99.90
24250;DHT22;12379;49.820;8.648;2023-07-30T03:47:43;19.50;99.90
24250;DHT22;12379;49.820;8.648;2023-07-30T03:50:09;19.40;99.90
24250;DHT22;12379;49.820;8.648;2023-07-30T03:52:34;19.50;99.90
24250;DHT22;12379;49.820;8.648;2023-07-30T03:55:00;19.50;99.90
24250;DHT22;12379;49.820;8.648;2023-07-30T03:57:25;19.60;99.90
24250;DHT22;12379;49.820;8.648;2023-07-30T03:59:51;19.50;99.90
24250;DHT22;12379;49.820;8.648;2023-07-30T04:02:16;19.40;99.90
24250;DHT22;12379;49.820;8.648;2023-07-30T04:04:42;19.40;99.90
24250;DHT22;12379;49.820;8.648;2023-07-30T04:07:10;19.40;99.90
24250;DHT22;12379;49.820;8.648;2023-07-30T04:09:36;19.50;99.90
24250;DHT22;12379;49.820;8.648;2023-07-30T04:12:02;19.50;99.90
24250;DHT22;12379;49.820;8.648;2023-07-30T04:14:27;19.50;99.90
24250;DHT22;12379;49.820;8.648;2023-07-30T04:16:53;19.50;99.90
24250;DHT22;12379;49.820;8.648;2023-07-30T04:19:18;19.60;99.90
24250;DHT22;12379;49.820;8.648;2023-07-30T04:21:44;19.70;99.90
24250;DHT22;12379;49.820;8.648;2023-07-30T04:24:10;19.70;99.90
24250;DHT22;12379;49.820;8.648;2023-07-30T04:26:35;19.70;99.90
24250;DHT22;12379;49.820;8.648;2023-07-30T04:29:01;19.60;99.90
24250;DHT22;12379;49.820;8.648;2023-07-30T04:31:26;19.60;99.90
24250;DHT22;12379;49.820;8.648;2023-07-30T04:33:52;19.70;99.90
24250;DHT22;12379;49.820;8.648;2023-07-30T04:36:17;19.60;99.90
24250;DHT22;12379;49.820;8.648;2023-07-30T04:38:43;19.60;99.90
24250;DHT22;12379;49.820;8.648;2023-07-30T04:41:08;19.50;99.90
24250;DHT22;12379;49.820;8.648;2023-07-30T04:43:34;19.50;99.90
24250;DHT22;12379;49.820;8.648;2023-07-30T04:45:59;19.50;99.90
24250;DHT22;12379;49.820;8.648;2023-07-30T04:48:25;19.50;99.90
24250;DHT22;12379;49.820;8.648;2023-07-30T04:50:50;19.50;99.90
24250;DHT22;12379;49.820;8.648;2023-07-30T04:53:16;19.50;99.90
24250;DHT22;12379;49.820;8.648;2023-07-30T04:55:43;19.60;99.90
24250;DHT22;12379;49.820;8.648;2023-07-30T04:58:09;19.60;99.90
24250;DHT22;12379;49.820;8.648;2023-07-30T05:00:34;19.50;99.90
24250;DHT22;12379;49.820;8.648;2023-07-30T05:03:00;19.60;99.90
24250;DHT22;12379;49.820;8.648;2023-07-30T05:05:25;19.60;99.90
24250;DHT22;12379;49.820;8.648;2023-07-30T05:07:51;19.80;99.90
24250;DHT22;12379;49.820;8.648;2023-07-30T05:10:16;19.80;99.90
24250;DHT22;12379;49.820;8.648;2023-07-30T05:12:42;19.80;99.90
24250;DHT22;12379;49.820;8.648;2023-07-30T05:15:08;19.90;99.90
24250;DHT22;12379;49.820;8.648;2023-07-30T05:17:33;20.10;99.90
24250;DHT22;12379;49.820;8.648;2023-07-30T05:19:59;20.20;99.90
24250;DHT22;12379;49.820;8.648;2023-07-30T05:22:25;20.20;99.90
24250;DHT22;12379;49.820;8.648;2023-07-30T05:24:50;20.30;99.90
24250;DHT22;12379;49.820;8.648;2023-07-30T05:27:16;20.30;99.90
24250;DHT22;12379;49.820;8.648;2023-07-30T05:29:42;20.10;99.90
24250;DHT22;12379;49.820;8.648;2023-07-30T05:32:08;20.00;99.90
24250;DHT22;12379;49.820;8.648;2023-07-30T05:34:33;20.10;99.90
24250;DHT22;12379;49.820;8.648;2023-07-30T05:36:59;20.00;99.90
24250;DHT22;12379;49.820;8.648;2023-07-30T05:39:25;20.10;99.90
24250;DHT22;12379;49.820;8.648;2023-07-30T05:41:51;20.20;99.90
24250;DHT22;12379;49.820;8.648;2023-07-30T05:44:17;20.10;99.90
24250;DHT22;12379;49.820;8.648;2023-07-30T05:46:42;20.10;99.90
24250;DHT22;12379;49.820;8.648;2023-07-30T05:49:08;20.20;99.90
24250;DHT22;12379;49.820;8.648;2023-07-30T05:51:33;20.10;99.90
24250;DHT22;12379;49.820;8.648;2023-07-30T05:53:59;20.00;99.90
24250;DHT22;12379;49.820;8.648;2023-07-30T05:56:25;20.00;99.90
24250;DHT22;12379;49.820;8.648;2023-07-30T05:58:50;20.00;99.90
24250;DHT22;12379;49.820;8.648;2023-07-30T06:01:19;20.20;99.90
24250;DHT22;12379;49.820;8.648;2023-07-30T06:03:45;20.30;99.90
24250;DHT22;12379;49.820;8.648;2023-07-30T06:06:10;20.50;99.90
24250;DHT22;12379;49.820;8.648;2023-07-30T06:08:36;20.90;99.90
24250;DHT22;12379;49.820;8.648;2023-07-30T06:11:04;21.20;99.90
24250;DHT22;12379;49.820;8.648;2023-07-30T06:13:58;21.20;99.90
24250;DHT22;12379;49.820;8.648;2023-07-30T06:16:24;21.20;99.90
24250;DHT22;12379;49.820;8.648;2023-07-30T06:18:49;21.80;99.90
24250;DHT22;12379;49.820;8.648;2023-07-30T06:21:15;22.50;99.90
24250;DHT22;12379;49.820;8.648;2023-07-30T06:23:40;23.40;99.90
24250;DHT22;12379;49.820;8.648;2023-07-30T06:26:06;23.80;99.90
24250;DHT22;12379;49.820;8.648;2023-07-30T06:28:32;24.60;99.90
24250;DHT22;12379;49.820;8.648;2023-07-30T06:31:02;24.50;99.90
24250;DHT22;12379;49.820;8.648;2023-07-30T06:33:28;24.00;99.90
24250;DHT22;12379;49.820;8.648;2023-07-30T06:35:53;24.60;99.90
24250;DHT22;12379;49.820;8.648;2023-07-30T06:38:19;24.30;99.90
24250;DHT22;12379;49.820;8.648;2023-07-30T06:40:44;23.80;99.90
24250;DHT22;12379;49.820;8.648;2023-07-30T06:43:10;23.30;99.90
24250;DHT22;12379;49.820;8.648;2023-07-30T06:45:35;22.80;99.90
24250;DHT22;12379;49.820;8.648;2023-07-30T06:48:01;22.30;99.90
24250;DHT22;12379;49.820;8.648;2023-07-30T06:50:26;22.20;99.90
24250;DHT22;12379;49.820;8.648;2023-07-30T06:52:52;22.00;99.90
24250;DHT22;12379;49.820;8.648;2023-07-30T06:55:18;22.30;99.90
24250;DHT22;12379;49.820;8.648;2023-07-30T06:57:43;22.30;99.90
24250;DHT22;12379;49.820;8.648;2023-07-30T07:00:09;22.60;99.90
24250;DHT22;12379;49.820;8.648;2023-07-30T07:02:35;22.80;99.90
24250;DHT22;12379;49.820;8.648;2023-07-30T07:05:00;22.50;99.90
24250;DHT22;12379;49.820;8.648;2023-07-30T07:07:26;22.40;99.90
24250;DHT22;12379;49.820;8.648;2023-07-30T07:09:51;22.40;99.90
24250;DHT22;12379;49.820;8.648;2023-07-30T07:12:17;22.60;99.90
24250;DHT22;12379;49.820;8.648;2023-07-30T07:14:42;22.50;99.90
24250;DHT22;12379;49.820;8.648;2023-07-30T07:17:08;22.40;99.90
24250;DHT22;12379;49.820;8.648;2023-07-30T07:19:34;23.10;99.90
24250;DHT22;12379;49.820;8.648;2023-07-30T07:22:03;23.70;99.90
24250;DHT22;12379;49.820;8.648;2023-07-30T07:24:29;23.00;99.90
24250;DHT22;12379;49.820;8.648;2023-07-30T07:26:54;22.30;99.90
24250;DHT22;12379;49.820;8.648;2023-07-30T07:29:20;22.10;99.90
24250;DHT22;12379;49.820;8.648;2023-07-30T07:31:45;21.70;99.90
24250;DHT22;12379;49.820;8.648;2023-07-30T07:34:11;21.70;99.90
24250;DHT22;12379;49.820;8.648;2023-07-30T07:36:37;21.50;99.90
24250;DHT22;12379;49.820;8.648;2023-07-30T07:39:03;21.30;99.90
24250;DHT22;12379;49.820;8.648;2023-07-30T07:41:29;21.10;99.90
24250;DHT22;12379;49.820;8.648;2023-07-30T07:43:54;20.90;99.90
24250;DHT22;12379;49.820;8.648;2023-07-30T07:46:20;20.00;99.90
24250;DHT22;12379;49.820;8.648;2023-07-30T07:48:45;19.40;99.90
24250;DHT22;12379;49.820;8.648;2023-07-30T07:51:11;19.20;99.90
24250;DHT22;12379;49.820;8.648;2023-07-30T07:53:38;19.10;99.90
24250;DHT22;12379;49.820;8.648;2023-07-30T07:56:04;19.00;99.90
24250;DHT22;12379;49.820;8.648;2023-07-30T07:58:30;18.80;99.90
24250;DHT22;12379;49.820;8.648;2023-07-30T08:00:56;18.80;99.90
24250;DHT22;12379;49.820;8.648;2023-07-30T08:03:22;18.90;99.90
24250;DHT22;12379;49.820;8.648;2023-07-30T08:05:48;19.00;99.90
24250;DHT22;12379;49.820;8.648;2023-07-30T08:08:14;19.00;99.90
24250;DHT22;12379;49.820;8.648;2023-07-30T08:10:40;19.10;99.90
24250;DHT22;12379;49.820;8.648;2023-07-30T08:13:12;19.20;99.90
24250;DHT22;12379;49.820;8.648;2023-07-30T08:15:37;19.40;99.90
24250;DHT22;12379;49.820;8.648;2023-07-30T08:18:04;19.70;99.90
24250;DHT22;12379;49.820;8.648;2023-07-30T08:20:30;20.00;99.90
24250;DHT22;12379;49.820;8.648;2023-07-30T08:22:55;20.40;99.90
24250;DHT22;12379;49.820;8.648;2023-07-30T08:25:21;20.80;99.90
24250;DHT22;12379;49.820;8.648;2023-07-30T08:27:46;21.00;99.90
24250;DHT22;12379;49.820;8.648;2023-07-30T08:30:12;21.50;99.90
24250;DHT22;12379;49.820;8.648;2023-07-30T08:32:38;21.90;99.90
24250;DHT22;12379;49.820;8.648;2023-07-30T08:35:04;22.40;99.90
24250;DHT22;12379;49.820;8.648;2023-07-30T08:37:30;23.00;99.90
24250;DHT22;12379;49.820;8.648;2023-07-30T08:39:56;23.30;99.90
24250;DHT22;12379;49.820;8.648;2023-07-30T08:42:22;23.50;99.90
24250;DHT22;12379;49.820;8.648;2023-07-30T08:44:47;23.00;99.90
24250;DHT22;12379;49.820;8.648;2023-07-30T08:47:14;23.00;99.90
24250;DHT22;12379;49.820;8.648;2023-07-30T08:49:40;23.50;99.90
24250;DHT22;12379;49.820;8.648;2023-07-30T08:52:10;23.60;99.90
24250;DHT22;12379;49.820;8.648;2023-07-30T08:54:37;23.50;99.90
24250;DHT22;12379;49.820;8.648;2023-07-30T08:57:06;23.20;99.90
24250;DHT22;12379;49.820;8.648;2023-07-30T08:59:37;23.10;99.90
24250;DHT22;12379;49.820;8.648;2023-07-30T09:02:16;23.00;99.90
24250;DHT22;12379;49.820;8.648;2023-07-30T09:04:53;22.90;99.90
24250;DHT22;12379;49.820;8.648;2023-07-30T09:07:24;22.90;99.90
24250;DHT22;12379;49.820;8.648;2023-07-30T09:09:52;23.10;99.90
24250;DHT22;12379;49.820;8.648;2023-07-30T09:12:19;23.30;99.90
24250;DHT22;12379;49.820;8.648;2023-07-30T09:14:50;23.50;99.90
24250;DHT22;12379;49.820;8.648;2023-07-30T09:17:29;23.30;99.90
24250;DHT22;12379;49.820;8.648;2023-07-30T09:19:55;23.70;99.90
24250;DHT22;12379;49.820;8.648;2023-07-30T09:22:32;23.60;99.90
24250;DHT22;12379;49.820;8.648;2023-07-30T09:25:10;23.50;99.90
24250;DHT22;12379;49.820;8.648;2023-07-30T09:27:36;23.00;99.90
24250;DHT22;12379;49.820;8.648;2023-07-30T09:30:05;22.80;99.90
24250;DHT22;12379;49.820;8.648;2023-07-30T09:32:34;22.60;99.90
24250;DHT22;12379;49.820;8.648;2023-07-30T09:35:10;22.50;99.90
24250;DHT22;12379;49.820;8.648;2023-07-30T09:37:39;22.50;99.90
24250;DHT22;12379;49.820;8.648;2023-07-30T09:40:07;22.40;99.90
24250;DHT22;12379;49.820;8.648;2023-07-30T09:42:35;22.00;99.90
24250;DHT22;12379;49.820;8.648;2023-07-30T09:45:23;21.50;99.90
24250;DHT22;12379;49.820;8.648;2023-07-30T09:47:50;20.80;99.90
24250;DHT22;12379;49.820;8.648;2023-07-30T09:50:17;20.50;99.90
24250;DHT22;12379;49.820;8.648;2023-07-30T09:52:43;20.40;99.90
24250;DHT22;12379;49.820;8.648;2023-07-30T09:55:10;20.40;99.90
24250;DHT22;12379;49.820;8.648;2023-07-30T09:57:36;20.30;99.90
24250;DHT22;12379;49.820;8.648;2023-07-30T10:00:03;20.30;99.90
24250;DHT22;12379;49.820;8.648;2023-07-30T10:02:32;20.40;99.90
24250;DHT22;12379;49.820;8.648;2023-07-30T10:04:59;20.50;99.90
24250;DHT22;12379;49.820;8.648;2023-07-30T10:07:26;20.90;99.90
24250;DHT22;12379;49.820;8.648;2023-07-30T10:09:57;21.00;99.90
24250;DHT22;12379;49.820;8.648;2023-07-30T10:12:28;20.80;99.90
24250;DHT22;12379;49.820;8.648;2023-07-30T10:14:56;20.80;99.90
24250;DHT22;12379;49.820;8.648;2023-07-30T10:17:21;20.60;99.90
24250;DHT22;12379;49.820;8.648;2023-07-30T10:19:49;20.70;99.90
24250;DHT22;12379;49.820;8.648;2023-07-30T10:24:59;20.80;99.90
24250;DHT22;12379;49.820;8.648;2023-07-30T10:27:39;20.80;99.90
24250;DHT22;12379;49.820;8.648;2023-07-30T10:30:15;21.00;99.90
24250;DHT22;12379;49.820;8.648;2023-07-30T10:33:00;21.60;99.90
24250;DHT22;12379;49.820;8.648;2023-07-30T10:35:45;22.10;99.90
24250;DHT22;12379;49.820;8.648;2023-07-30T10:38:21;22.60;99.90
24250;DHT22;12379;49.820;8.648;2023-07-30T10:41:14;22.90;99.90
24250;DHT22;12379;49.820;8.648;2023-07-30T10:43:46;22.80;99.90
24250;DHT22;12379;49.820;8.648;2023-07-30T10:46:14;22.50;99.90
24250;DHT22;12379;49.820;8.648;2023-07-30T10:48:41;22.00;99.90
24250;DHT22;12379;49.820;8.648;2023-07-30T10:51:09;22.00;99.90
24250;DHT22;12379;49.820;8.648;2023-07-30T10:53:36;21.90;99.90
24250;DHT22;12379;49.820;8.648;2023-07-30T10:56:07;22.10;99.90
24250;DHT22;12379;49.820;8.648;2023-07-30T10:58:37;22.20;99.90
24250;DHT22;12379;49.820;8.648;2023-07-30T11:01:04;22.50;99.90
24250;DHT22;12379;49.820;8.648;2023-07-30T11:03:30;22.70;99.90
24250;DHT22;12379;49.820;8.648;2023-07-30T11:06:00;22.60;99.90
24250;DHT22;12379;49.820;8.648;2023-07-30T11:08:52;22.40;99.90
24250;DHT22;12379;49.820;8.648;2023-07-30T11:11:18;22.50;99.90
24250;DHT22;12379;49.820;8.648;2023-07-30T11:13:46;22.40;99.90
24250;DHT22;12379;49.820;8.648;2023-07-30T11:16:12;22.30;99.90
24250;DHT22;12379;49.820;8.648;2023-07-30T11:18:39;22.30;99.90
24250;DHT22;12379;49.820;8.648;2023-07-30T11:21:07;22.40;99.90
24250;DHT22;12379;49.820;8.648;2023-07-30T11:23:34;22.60;99.90
24250;DHT22;12379;49.820;8.648;2023-07-30T11:26:05;22.50;99.90
24250;DHT22;12379;49.820;8.648;2023-07-30T11:28:35;22.30;99.90
24250;DHT22;12379;49.820;8.648;2023-07-30T11:31:13;22.40;99.90
24250;DHT22;12379;49.820;8.648;2023-07-30T11:33:46;22.50;99.90
24250;DHT22;12379;49.820;8.648;2023-07-30T11:36:16;22.70;99.90
24250;DHT22;12379;49.820;8.648;2023-07-30T11:38:42;23.00;99.90
24250;DHT22;12379;49.820;8.648;2023-07-30T11:41:09;23.00;97.80
24250;DHT22;12379;49.820;8.648;2023-07-30T11:43:37;22.60;97.50
24250;DHT22;12379;49.820;8.648;2023-07-30T11:46:17;22.50;98.50
24250;DHT22;12379;49.820;8.648;2023-07-30T11:48:47;22.60;97.90
24250;DHT22;12379;49.820;8.648;2023-07-30T11:51:25;22.70;97.10
24250;DHT22;12379;49.820;8.648;2023-07-30T11:53:52;22.60;97.20
24250;DHT22;12379;49.820;8.648;2023-07-30T11:56:20;22.50;97.50
24250;DHT22;12379;49.820;8.648;2023-07-30T11:58:48;22.10;98.70
24250;DHT22;12379;49.820;8.648;2023-07-30T12:01:15;21.90;97.80
24250;DHT22;12379;49.820;8.648;2023-07-30T12:03:41;21.70;99.30
24250;DHT22;12379;49.820;8.648;2023-07-30T12:06:07;21.80;99.70
24250;DHT22;12379;49.820;8.648;2023-07-30T12:08:34;21.60;98.70
24250;DHT22;12379;49.820;8.648;2023-07-30T12:11:05;21.30;99.20
24250;DHT22;12379;49.820;8.648;2023-07-30T12:13:31;21.30;99.90
24250;DHT22;12379;49.820;8.648;2023-07-30T12:15:57;21.60;99.90
24250;DHT22;12379;49.820;8.648;2023-07-30T12:25:08;21.90;97.60
24250;DHT22;12379;49.820;8.648;2023-07-30T12:31:08;22.00;97.00
24250;DHT22;12379;49.820;8.648;2023-07-30T12:33:34;22.20;93.90
24250;DHT22;12379;49.820;8.648;2023-07-30T12:43:31;21.80;94.00
24250;DHT22;12379;49.820;8.648;2023-07-30T13:01:11;21.80;94.20
24250;DHT22;12379;49.820;8.648;2023-07-30T13:29:06;22.20;88.90
24250;DHT22;12379;49.820;8.648;2023-07-30T13:36:03;22.30;86.80
24250;DHT22;12379;49.820;8.648;2023-07-30T14:01:23;22.80;83.80
24250;DHT22;12379;49.820;8.648;2023-07-30T14:26:39;22.60;81.80
24250;DHT22;12379;49.820;8.648;2023-07-30T14:40:12;23.00;81.30
24250;DHT22;12379;49.820;8.648;2023-07-30T14:46:00;23.20;81.60
24250;DHT22;12379;49.820;8.648;2023-07-30T14:48:25;23.30;81.80
24250;DHT22;12379;49.820;8.648;2023-07-30T14:51:06;23.20;81.00
24250;DHT22;12379;49.820;8.648;2023-07-30T14:57:24;23.30;79.50
24250;DHT22;12379;49.820;8.648;2023-07-30T14:59:50;23.00;79.20
24250;DHT22;12379;49.820;8.648;2023-07-30T15:02:15;22.90;80.00
24250;DHT22;12379;49.820;8.648;2023-07-30T15:04:51;22.80;81.10
24250;DHT22;12379;49.820;8.648;2023-07-30T15:21:16;22.90;80.40
24250;DHT22;12379;49.820;8.648;2023-07-30T15:23:43;22.90;82.30
24250;DHT22;12379;49.820;8.648;2023-07-30T15:26:18;23.00;80.50
24250;DHT22;12379;49.820;8.648;2023-07-30T15:28:44;23.10;81.40
24250;DHT22;12379;49.820;8.648;2023-07-30T15:31:09;23.20;80.10
24250;DHT22;12379;49.820;8.648;2023-07-30T15:33:35;23.20;80.70
24250;DHT22;12379;49.820;8.648;2023-07-30T15:36:01;23.00;79.80
24250;DHT22;12379;49.820;8.648;2023-07-30T15:38:27;23.00;81.40
24250;DHT22;12379;49.820;8.648;2023-07-30T15:40:52;23.20;80.50
24250;DHT22;12379;49.820;8.648;2023-07-30T15:43:20;23.40;78.50
24250;DHT22;12379;49.820;8.648;2023-07-30T15:45:45;23.40;78.80
24250;DHT22;12379;49.820;8.648;2023-07-30T15:48:12;23.40;80.00
24250;DHT22;12379;49.820;8.648;2023-07-30T15:50:38;23.50;80.80
24250;DHT22;12379;49.820;8.648;2023-07-30T15:53:09;23.40;79.90
24250;DHT22;12379;49.820;8.648;2023-07-30T15:55:37;23.30;80.00
24250;DHT22;12379;49.820;8.648;2023-07-30T15:58:03;23.30;80.50
24250;DHT22;12379;49.820;8.648;2023-07-30T16:00:28;23.50;81.60
24250;DHT22;12379;49.820;8.648;2023-07-30T16:03:08;23.60;81.20
24250;DHT22;12379;49.820;8.648;2023-07-30T16:05:54;23.60;79.00
24250;DHT22;12379;49.820;8.648;2023-07-30T16:08:22;23.70;80.50
24250;DHT22;12379;49.820;8.648;2023-07-30T16:10:49;23.80;78.80
24250;DHT22;12379;49.820;8.648;2023-07-30T16:13:20;23.80;79.80
24250;DHT22;12379;49.820;8.648;2023-07-30T16:15:46;23.80;77.80
24250;DHT22;12379;49.820;8.648;2023-07-30T16:18:11;23.90;78.20
24250;DHT22;12379;49.820;8.648;2023-07-30T16:20:37;23.70;76.40
24250;DHT22;12379;49.820;8.648;2023-07-30T16:23:02;23.50;75.50
24250;DHT22;12379;49.820;8.648;2023-07-30T16:25:29;23.40;75.60
24250;DHT22;12379;49.820;8.648;2023-07-30T16:27:54;23.30;75.70
24250;DHT22;12379;49.820;8.648;2023-07-30T16:30:20;23.30;75.20
24250;DHT22;12379;49.820;8.648;2023-07-30T16:32:46;23.20;75.20
24250;DHT22;12379;49.820;8.648;2023-07-30T16:35:14;23.10;76.20
24250;DHT22;12379;49.820;8.648;2023-07-30T16:37:40;23.20;78.10
24250;DHT22;12379;49.820;8.648;2023-07-30T16:40:06;23.20;77.20
24250;DHT22;12379;49.820;8.648;2023-07-30T16:42:32;23.30;77.30
24250;DHT22;12379;49.820;8.648;2023-07-30T16:44:58;23.30;77.10
24250;DHT22;12379;49.820;8.648;2023-07-30T16:51:06;23.20;77.40
24250;DHT22;12379;49.820;8.648;2023-07-30T16:53:31;23.20;77.50
24250;DHT22;12379;49.820;8.648;2023-07-30T16:55:57;23.20;77.60
24250;DHT22;12379;49.820;8.648;2023-07-30T16:58:25;23.20;77.80
24250;DHT22;12379;49.820;8.648;2023-07-30T17:00:59;23.20;78.50
24250;DHT22;12379;49.820;8.648;2023-07-30T17:03:26;23.00;77.30
24250;DHT22;12379;49.820;8.648;2023-07-30T17:06:27;22.90;76.40
24250;DHT22;12379;49.820;8.648;2023-07-30T17:12:13;22.60;77.90
24250;DHT22;12379;49.820;8.648;2023-07-30T17:14:39;22.60;78.90
24250;DHT22;12379;49.820;8.648;2023-07-30T17:20:09;22.60;79.20
24250;DHT22;12379;49.820;8.648;2023-07-30T17:22:53;22.60;78.30
24250;DHT22;12379;49.820;8.648;2023-07-30T17:25:53;22.60;80.60
24250;DHT22;12379;49.820;8.648;2023-07-30T17:28:23;22.50;80.00
24250;DHT22;12379;49.820;8.648;2023-07-30T17:30:49;22.50;80.00
24250;DHT22;12379;49.820;8.648;2023-07-30T17:33:15;22.40;80.10
24250;DHT22;12379;49.820;8.648;2023-07-30T17:35:41;22.40;81.80
24250;DHT22;12379;49.820;8.648;2023-07-30T17:38:07;22.40;82.00
24250;DHT22;12379;49.820;8.648;2023-07-30T17:40:35;22.40;82.10
24250;DHT22;12379;49.820;8.648;2023-07-30T17:43:07;22.20;81.30
24250;DHT22;12379;49.820;8.648;2023-07-30T17:45:35;22.20;81.50
24250;DHT22;12379;49.820;8.648;2023-07-30T17:48:01;22.20;81.90
24250;DHT22;12379;49.820;8.648;2023-07-30T17:50:32;22.20;83.00
24250;DHT22;12379;49.820;8.648;2023-07-30T17:53:04;22.20;82.00
24250;DHT22;12379;49.820;8.648;2023-07-30T17:55:40;22.20;82.70
24250;DHT22;12379;49.820;8.648;2023-07-30T17:58:11;22.20;83.10
24250;DHT22;12379;49.820;8.648;2023-07-30T18:00:41;22.10;82.90
24250;DHT22;12379;49.820;8.648;2023-07-30T18:03:09;22.10;84.00
24250;DHT22;12379;49.820;8.648;2023-07-30T18:05:34;22.00;84.80
24250;DHT22;12379;49.820;8.648;2023-07-30T18:08:00;22.00;84.80